sensor_id;sensor_type;location;lat;lon;timestamp;pressure;altitude;pressure_sealevel;temperature;humidity
50650;BME280;36621;60.058;30.346;2022-07-03T07:46:52;101419.06;;;32.05;38.09
50650;BME280;36621;60.058;30.346;2022-07-03T07:54:24;101419.88;;;31.66;38.85
50650;BME280;36621;60.058;30.346;2022-07-03T08:01:56;101432.75;;;31.34;40.57
50650;BME280;36621;60.058;30.346;2022-07-03T08:09:46;101433.84;;;31.01;41.31
50650;BME280;36621;60.058;30.346;2022-07-03T08:17:19;101436.09;;;30.74;42.45
50650;BME280;36621;60.058;30.346;2022-07-03T08:24:50;101434.44;;;30.62;41.84
50650;BME280;36621;60.058;30.346;2022-07-03T08:32:23;101421.69;;;30.93;41.74
50650;BME280;36621;60.058;30.346;2022-07-03T08:39:55;101432.59;;;30.98;42.08
50650;BME280;36621;60.058;30.346;2022-07-03T08:47:27;101436.19;;;30.95;42.23
50650;BME280;36621;60.058;30.346;2022-07-03T08:55:01;101431.44;;;31.07;41.47
50650;BME280;36621;60.058;30.346;2022-07-03T09:02:34;101439.53;;;31.19;40.65
50650;BME280;36621;60.058;30.346;2022-07-03T09:10:07;101436.38;;;31.42;40.66
50650;BME280;36621;60.058;30.346;2022-07-03T09:17:40;101438.78;;;31.47;40.09
50650;BME280;36621;60.058;30.346;2022-07-03T09:25:26;101437.22;;;31.57;39.79
50650;BME280;36621;60.058;30.346;2022-07-03T09:32:59;101425.88;;;31.43;39.70
50650;BME280;36621;60.058;30.346;2022-07-03T09:40:46;101430.66;;;31.13;40.02
50650;BME280;36621;60.058;30.346;2022-07-03T09:48:29;101427.75;;;30.92;40.09
50650;BME280;36621;60.058;30.346;2022-07-03T09:56:01;101425.25;;;30.76;40.23
50650;BME280;36621;60.058;30.346;2022-07-03T10:03:34;101424.75;;;30.59;40.72
50650;BME280;36621;60.058;30.346;2022-07-03T10:11:06;101430.38;;;30.52;40.98
50650;BME280;36621;60.058;30.346;2022-07-03T10:18:38;101440.00;;;30.47;41.31
50650;BME280;36621;60.058;30.346;2022-07-03T10:26:13;101442.03;;;30.51;41.58
50650;BME280;36621;60.058;30.346;2022-07-03T10:33:46;101448.59;;;30.13;41.92
50650;BME280;36621;60.058;30.346;2022-07-03T10:41:19;101450.41;;;29.88;42.79
50650;BME280;36621;60.058;30.346;2022-07-03T10:49:11;101450.66;;;29.75;43.10
50650;BME280;36621;60.058;30.346;2022-07-03T11:20:09;101458.31;;;29.34;44.41
50650;BME280;36621;60.058;30.346;2022-07-03T11:27:56;101441.16;;;29.12;43.98
50650;BME280;36621;60.058;30.346;2022-07-03T11:43:19;101428.00;;;29.61;42.91
50650;BME280;36621;60.058;30.346;2022-07-03T11:50:51;101423.75;;;29.78;42.25
50650;BME280;36621;60.058;30.346;2022-07-03T11:58:39;101417.09;;;29.93;42.02
50650;BME280;36621;60.058;30.346;2022-07-03T12:06:11;101417.13;;;30.01;42.04
50650;BME280;36621;60.058;30.346;2022-07-03T12:13:44;101405.38;;;29.88;41.87
50650;BME280;36621;60.058;30.346;2022-07-03T12:21:15;101409.69;;;29.78;41.71
50650;BME280;36621;60.058;30.346;2022-07-03T12:28:48;101410.81;;;29.70;41.80
50650;BME280;36621;60.058;30.346;2022-07-03T12:36:20;101416.81;;;29.68;41.97
50650;BME280;36621;60.058;30.346;2022-07-03T12:43:53;101419.97;;;29.59;41.90
50650;BME280;36621;60.058;30.346;2022-07-03T12:59:24;101414.06;;;29.75;41.76
50650;BME280;36621;60.058;30.346;2022-07-03T13:06:59;101413.78;;;29.84;41.34
50650;BME280;36621;60.058;30.346;2022-07-03T13:14:31;101409.94;;;29.62;41.11
50650;BME280;36621;60.058;30.346;2022-07-03T13:22:03;101401.19;;;29.71;41.23
50650;BME280;36621;60.058;30.346;2022-07-03T13:29:37;101392.75;;;29.71;41.53
50650;BME280;36621;60.058;30.346;2022-07-03T13:37:08;101383.84;;;29.65;41.27
50650;BME280;36621;60.058;30.346;2022-07-03T13:44:41;101383.00;;;29.57;41.24
50650;BME280;36621;60.058;30.346;2022-07-03T13:52:13;101390.13;;;29.48;41.29
50650;BME280;36621;60.058;30.346;2022-07-03T13:59:46;101385.19;;;29.34;41.51
50650;BME280;36621;60.058;30.346;2022-07-03T14:07:18;101382.19;;;29.19;42.69
50650;BME280;36621;60.058;30.346;2022-07-03T14:14:50;101379.31;;;29.12;43.04
50650;BME280;36621;60.058;30.346;2022-07-03T14:22:22;101377.31;;;29.13;43.45
50650;BME280;36621;60.058;30.346;2022-07-03T14:29:55;101388.84;;;29.04;44.33
50650;BME280;36621;60.058;30.346;2022-07-03T14:37:44;101389.50;;;28.90;43.91
50650;BME280;36621;60.058;30.346;2022-07-03T14:45:17;101395.28;;;28.70;44.66
50650;BME280;36621;60.058;30.346;2022-07-03T14:52:49;101407.75;;;28.46;44.89
50650;BME280;36621;60.058;30.346;2022-07-03T15:00:23;101395.47;;;28.28;44.88
50650;BME280;36621;60.058;30.346;2022-07-03T15:08:00;101410.09;;;28.14;44.90
50650;BME280;36621;60.058;30.346;2022-07-03T15:15:35;101403.63;;;27.86;44.86
50650;BME280;36621;60.058;30.346;2022-07-03T15:23:09;101406.63;;;27.74;45.40
50650;BME280;36621;60.058;30.346;2022-07-03T15:30:45;101400.09;;;27.66;45.38
50650;BME280;36621;60.058;30.346;2022-07-03T15:38:17;101410.34;;;27.59;45.49
50650;BME280;36621;60.058;30.346;2022-07-03T15:45:58;101400.38;;;27.38;46.12
50650;BME280;36621;60.058;30.346;2022-07-03T15:53:36;101410.94;;;27.25;46.49
50650;BME280;36621;60.058;30.346;2022-07-03T16:01:09;101423.84;;;27.10;46.69
50650;BME280;36621;60.058;30.346;2022-07-03T16:08:59;101420.09;;;27.02;46.47
50650;BME280;36621;60.058;30.346;2022-07-03T16:16:32;101416.94;;;27.04;46.22
50650;BME280;36621;60.058;30.346;2022-07-03T16:24:04;101408.31;;;26.93;46.37
50650;BME280;36621;60.058;30.346;2022-07-03T16:31:40;101410.06;;;26.82;46.40
50650;BME280;36621;60.058;30.346;2022-07-03T16:39:12;101410.84;;;26.63;46.78
50650;BME280;36621;60.058;30.346;2022-07-03T16:46:47;101433.22;;;26.79;46.91
50650;BME280;36621;60.058;30.346;2022-07-03T16:54:28;101432.81;;;26.61;47.42
50650;BME280;36621;60.058;30.346;2022-07-03T17:02:03;101438.09;;;26.46;47.20
50650;BME280;36621;60.058;30.346;2022-07-03T17:09:41;101445.47;;;26.39;47.31
50650;BME280;36621;60.058;30.346;2022-07-03T17:17:14;101434.78;;;26.25;47.55
50650;BME280;36621;60.058;30.346;2022-07-03T17:24:48;101440.59;;;26.00;47.67
50650;BME280;36621;60.058;30.346;2022-07-03T17:32:24;101438.59;;;26.00;47.68
50650;BME280;36621;60.058;30.346;2022-07-03T17:39:57;101422.81;;;26.44;47.61
50650;BME280;36621;60.058;30.346;2022-07-03T17:47:30;101433.50;;;26.58;46.97
50650;BME280;36621;60.058;30.346;2022-07-03T17:55:04;101425.22;;;26.61;46.69
50650;BME280;36621;60.058;30.346;2022-07-03T18:02:37;101434.88;;;26.64;46.36
50650;BME280;36621;60.058;30.346;2022-07-03T18:10:09;101436.31;;;26.58;46.21
50650;BME280;36621;60.058;30.346;2022-07-03T18:17:46;101450.72;;;26.40;46.13
50650;BME280;36621;60.058;30.346;2022-07-03T18:25:18;101440.28;;;26.21;45.92
50650;BME280;36621;60.058;30.346;2022-07-03T18:32:53;101442.88;;;25.98;46.21
50650;BME280;36621;60.058;30.346;2022-07-03T18:40:25;101450.84;;;25.80;46.03
50650;BME280;36621;60.058;30.346;2022-07-03T18:47:58;101452.72;;;25.60;45.96
50650;BME280;36621;60.058;30.346;2022-07-03T18:55:31;101443.47;;;25.43;46.04
50650;BME280;36621;60.058;30.346;2022-07-03T19:03:08;101438.16;;;25.26;46.05
50650;BME280;36621;60.058;30.346;2022-07-03T19:10:46;101439.63;;;25.07;46.54
50650;BME280;36621;60.058;30.346;2022-07-03T19:18:20;101435.84;;;25.00;46.50
50650;BME280;36621;60.058;30.346;2022-07-03T19:25:53;101445.88;;;24.88;46.46
50650;BME280;36621;60.058;30.346;2022-07-03T19:33:26;101435.00;;;24.71;46.89
50650;BME280;36621;60.058;30.346;2022-07-03T19:40:57;101438.59;;;24.59;47.27
50650;BME280;36621;60.058;30.346;2022-07-03T19:48:31;101428.38;;;24.51;47.38
50650;BME280;36621;60.058;30.346;2022-07-03T19:56:04;101438.16;;;24.44;47.77
50650;BME280;36621;60.058;30.346;2022-07-03T20:03:40;101438.84;;;24.41;47.82
50650;BME280;36621;60.058;30.346;2022-07-03T20:11:11;101436.53;;;24.43;48.13
50650;BME280;36621;60.058;30.346;2022-07-03T20:18:44;101430.72;;;24.49;48.25
50650;BME280;36621;60.058;30.346;2022-07-03T20:26:16;101428.84;;;24.53;48.17
50650;BME280;36621;60.058;30.346;2022-07-03T20:33:48;101431.28;;;24.54;48.29
50650;BME280;36621;60.058;30.346;2022-07-03T20:41:20;101435.22;;;24.53;47.96
50650;BME280;36621;60.058;30.346;2022-07-03T20:48:52;101436.88;;;24.54;48.15
50650;BME280;36621;60.058;30.346;2022-07-03T20:56:24;101442.91;;;24.56;47.67
50650;BME280;36621;60.058;30.346;2022-07-03T21:03:57;101447.19;;;24.54;48.44
50650;BME280;36621;60.058;30.346;2022-07-03T21:11:29;101447.19;;;24.54;48.26
50650;BME280;36621;60.058;30.346;2022-07-03T21:19:05;101441.63;;;24.54;48.17
50650;BME280;36621;60.058;30.346;2022-07-03T21:26:37;101445.59;;;24.53;48.59
50650;BME280;36621;60.058;30.346;2022-07-03T21:34:10;101442.81;;;24.53;48.40
50650;BME280;36621;60.058;30.346;2022-07-03T21:41:42;101439.53;;;24.51;48.26
50650;BME280;36621;60.058;30.346;2022-07-03T21:49:14;101434.22;;;24.45;49.14
50650;BME280;36621;60.058;30.346;2022-07-03T21:56:47;101433.72;;;24.43;49.88
50650;BME280;36621;60.058;30.346;2022-07-03T22:04:20;101423.50;;;24.35;49.10
50650;BME280;36621;60.058;30.346;2022-07-03T22:11:52;101423.63;;;24.26;50.06
50650;BME280;36621;60.058;30.346;2022-07-03T22:19:39;101421.44;;;24.20;50.53
50650;BME280;36621;60.058;30.346;2022-07-03T22:27:10;101417.47;;;24.08;50.45
50650;BME280;36621;60.058;30.346;2022-07-03T22:34:44;101417.94;;;23.98;50.92
50650;BME280;36621;60.058;30.346;2022-07-03T22:42:19;101410.50;;;23.90;51.89
50650;BME280;36621;60.058;30.346;2022-07-03T22:49:51;101409.78;;;23.81;50.88
50650;BME280;36621;60.058;30.346;2022-07-03T22:57:23;101403.97;;;23.73;51.30
50650;BME280;36621;60.058;30.346;2022-07-03T23:04:56;101397.66;;;23.64;51.27
50650;BME280;36621;60.058;30.346;2022-07-03T23:12:27;101399.25;;;23.53;52.60
50650;BME280;36621;60.058;30.346;2022-07-03T23:20:00;101403.44;;;23.47;51.72
50650;BME280;36621;60.058;30.346;2022-07-03T23:27:31;101394.72;;;23.36;52.79
50650;BME280;36621;60.058;30.346;2022-07-03T23:35:04;101396.75;;;23.27;53.24
50650;BME280;36621;60.058;30.346;2022-07-03T23:42:36;101391.78;;;23.20;52.60
50650;BME280;36621;60.058;30.346;2022-07-03T23:50:09;101394.63;;;23.11;53.07
50650;BME280;36621;60.058;30.346;2022-07-03T23:57:59;101389.25;;;23.06;53.15
